Latest Weather Observations for Tindal

IDD60801

Issued at 10:01 am CST Monday 16 September 2019 (issued every 10 minutes, with the page automatically refreshed every 10 minutes)

About weather observations | Map of weather stations | Latest weather observations for NT | Other Formats
Station Details ID: 014932 Name: TINDAL RAAF Lat: -14.52 Lon: 132.38 Height: 133.6 m
Data from the previous 72 hours. | See also: Recent months at Tindal
Date/Time
CST
Temp
°C
App
Temp
°C
Dew
Point
°C
Rel
Hum
%
Delta-T
°C
Wind Press
QNH
hPa
Press
MSL
hPa
Rain since
9am
mm
Dir  Spd
km/h
Gust
km/h
Spd
kts
Gust
kts
16/10:00am 29.7 23.4 7.6 25 12.0 E 30 46 16 25 1017.4 1016.5 0.0
16/09:56am 29.8 23.4 7.1 24 12.3 E 30 46 16 25 1017.4 1016.5 0.0
16/09:30am 29.5 23.4 6.8 24 12.2 E 28 43 15 23 1017.5 1016.6 0.0
16/09:00am 28.1 22.3 4.4 22 12.1 E 24 35 13 19 1017.6 1016.7 0.0
16/08:30am 24.8 22.9 6.5 31 9.5 NE 6 11 3 6 1017.5 1016.6 0.0
16/08:00am 21.5 20.2 5.8 36 7.9 SSE 2 6 1 3 1017.3 1016.4 0.0
16/07:30am 17.4 16.3 5.0 44 6.0 CALM 0 0 0 0 1017.1 1016.2 0.0
16/07:00am 14.9 12.9 4.6 50 4.8 ESE 4 9 2 5 1016.8 1015.9 0.0
16/06:30am 15.2 13.2 4.6 49 5.0 WSW 4 9 2 5 1016.6 1015.7 0.0
16/06:00am 17.2 15.9 4.2 42 6.1 CALM 0 6 0 3 1016.2 1015.3 0.0
16/05:30am 17.9 15.3 4.1 40 6.5 WSW 7 9 4 5 1015.9 1015.0 0.0
16/05:00am 18.4 15.9 3.5 37 7.0 NE 6 7 3 4 1015.6 1014.8 0.0
16/04:30am 18.7 15.9 2.9 35 7.4 NE 7 11 4 6 1015.3 1014.5 0.0
16/04:00am 21.0 17.8 3.2 31 8.5 W 9 15 5 8 1015.2 1014.4 0.0
16/03:30am 23.3 19.4 3.3 27 9.7 ENE 13 20 7 11 1015.0 1014.2 0.0
16/03:00am 23.5 19.1 2.9 26 10.0 ENE 15 22 8 12 1015.1 1014.3 0.0
16/02:30am 23.7 19.7 3.1 26 10.0 ENE 13 17 7 9 1015.4 1014.6 0.0
16/02:00am 23.3 20.0 2.7 26 9.9 E 9 13 5 7 1015.4 1014.6 0.0
16/01:30am 23.9 20.0 3.2 26 10.1 E 13 15 7 8 1015.5 1014.7 0.0
16/01:00am 24.6 20.7 3.3 25 10.5 E 13 19 7 10 1015.5 1014.7 0.0
16/12:30am 24.5 21.1 3.8 26 10.2 ENE 11 15 6 8 1015.6 1014.8 0.0
16/12:00am 25.3 21.5 3.9 25 10.7 NE 13 15 7 8 1015.8 1014.9 0.0
 
Date/Time
CST
Temp
°C
App
Temp
°C
Dew
Point
°C
Rel
Hum
%
Delta-T
°C
Wind Press
QNH
hPa
Press
MSL
hPa
Rain since
9am
mm
Dir  Spd
km/h
Gust
km/h
Spd
kts
Gust
kts
15/11:30pm 26.3 21.4 4.1 24 11.2 E 19 24 10 13 1015.9 1015.0 0.0
15/11:00pm 26.7 21.7 4.5 24 11.3 E 20 28 11 15 1015.8 1014.9 0.0
15/10:30pm 27.4 22.4 4.5 23 11.7 E 20 28 11 15 1015.8 1014.9 0.0
15/10:00pm 27.7 22.3 4.7 23 11.8 E 22 32 12 17 1015.5 1014.7 0.0
15/09:30pm 28.0 22.9 4.3 22 12.1 E 20 26 11 14 1015.4 1014.6 0.0
15/09:00pm 28.2 23.4 4.5 22 12.2 ESE 19 22 10 12 1015.0 1014.2 0.0
15/08:30pm 27.3 23.2 4.4 23 11.7 E 15 20 8 11 1014.7 1013.9 0.0
15/08:00pm 27.6 24.4 3.3 21 12.2 ESE 9 13 5 7 1014.3 1013.5 0.0
15/07:30pm 28.4 24.5 3.3 20 12.6 E 13 15 7 8 1013.9 1013.1 0.0
15/07:00pm 29.7 25.5 3.6 19 13.3 ESE 15 19 8 10 1013.6 1012.8 0.0
15/06:30pm 31.3 26.3 3.4 17 14.3 E 19 26 10 14 1013.1 1012.3 0.0
15/06:00pm 32.4 27.0 2.5 15 15.2 E 20 26 11 14 1013.0 1012.2 0.0
15/05:30pm 33.1 26.9 2.1 14 15.7 ESE 24 35 13 19 1012.8 1012.0 0.0
15/05:00pm 33.5 27.2 1.3 13 16.2 ESE 24 44 13 24 1012.6 1011.8 0.0
15/04:30pm 34.3 28.6 0.8 12 16.8 ENE 20 30 11 16 1012.7 1011.9 0.0
15/04:00pm 34.1 28.0 0.7 12 16.7 E 22 35 12 19 1012.6 1011.8 0.0
15/03:30pm 34.3 26.7 0.8 12 16.8 ESE 30 39 16 21 1012.6 1011.8 0.0
15/03:00pm 34.7 28.3 1.1 12 17.0 ESE 24 50 13 27 1012.7 1011.9 0.0
15/02:30pm 34.5 26.4 -0.2 11 17.1 E 32 44 17 24 1013.0 1012.2 0.0
15/02:00pm 34.1 25.8 -0.5 11 16.9 E 33 56 18 30 1013.3 1012.5 0.0
15/01:30pm 33.4 26.3 1.3 13 16.1 E 28 39 15 21 1013.9 1013.1 0.0
15/01:00pm 33.6 26.7 0.3 12 16.5 E 26 39 14 21 1014.5 1013.7 0.0
15/12:34pm 33.4 25.7 0.1 12 16.4 E 30 48 16 26 1014.9 1014.1 0.0
15/12:30pm 33.0 24.9 -0.2 12 16.2 E 32 48 17 26 1015.2 1014.4 0.0
15/12:07pm 32.5 25.2 2.5 15 15.3 ESE 30 48 16 26 1015.8 1014.9 0.0
15/12:00pm 32.4 23.2 1.5 14 15.5 ESE 39 56 21 30 1015.9 1015.0 0.0
15/11:52am 32.0 23.3 2.1 15 15.1 ESE 37 56 20 30 1016.0 1015.1 0.0
15/11:47am 32.3 24.0 2.4 15 15.2 ESE 35 50 19 27 1016.1 1015.2 0.0
15/11:30am 32.1 24.2 2.2 15 15.1 E 33 48 18 26 1016.6 1015.7 0.0
15/11:00am 31.5 23.9 2.7 16 14.6 E 32 54 17 29 1017.1 1016.2 0.0
15/10:51am 31.2 22.8 1.5 15 14.8 E 35 54 19 29 1017.3 1016.4 0.0
15/10:30am 30.7 24.3 5.2 20 13.4 ENE 28 44 15 24 1017.6 1016.7 0.0
15/10:00am 29.9 22.8 6.5 23 12.6 ENE 33 44 18 24 1017.9 1017.0 0.0
15/09:43am 29.2 23.3 7.7 26 11.7 ENE 28 46 15 25 1018.0 1017.1 0.0
15/09:30am 29.1 23.7 8.2 27 11.5 E 26 39 14 21 1018.1 1017.3 0.0
15/09:00am 27.5 23.5 8.4 30 10.4 ENE 19 26 10 14 1018.3 1017.5 0.0
15/08:30am 25.2 21.6 6.9 31 9.6 ENE 15 22 8 12 1018.4 1017.6 0.0
15/08:00am 21.2 18.6 4.3 33 8.3 SSE 7 9 4 5 1018.0 1017.1 0.0
15/07:30am 17.7 15.1 4.3 41 6.4 S 7 9 4 5 1017.8 1016.9 0.0
15/07:00am 14.5 11.8 3.6 48 5.0 SE 7 9 4 5 1017.6 1016.7 0.0
15/06:30am 14.4 11.7 3.5 48 5.0 SSE 7 9 4 5 1017.3 1016.4 0.0
15/06:00am 14.8 12.2 3.3 46 5.2 SE 6 9 3 5 1017.0 1016.1 0.0
15/05:30am 17.5 14.6 2.7 37 6.8 SE 7 9 4 5 1017.0 1016.1 0.0
15/05:00am 18.2 14.8 2.1 34 7.4 SE 9 11 5 6 1016.6 1015.7 0.0
15/04:30am 20.2 16.8 2.1 30 8.4 E 9 13 5 7 1016.3 1015.4 0.0
15/04:00am 19.8 16.8 1.7 30 8.3 ESE 7 9 4 5 1016.3 1015.4 0.0
15/03:30am 21.0 17.1 1.3 27 9.1 E 11 13 6 7 1016.1 1015.2 0.0
15/03:00am 22.4 17.7 0.9 24 9.9 NE 15 20 8 11 1016.0 1015.1 0.0
15/02:30am 22.8 18.6 1.8 25 9.9 ENE 13 19 7 10 1016.2 1015.3 0.0
15/02:00am 23.2 17.9 2.1 25 10.0 ENE 19 24 10 13 1016.4 1015.5 0.0
15/01:30am 23.6 18.4 2.4 25 10.1 ENE 19 26 10 14 1016.4 1015.5 0.0
15/01:00am 24.1 18.8 2.9 25 10.3 ENE 20 30 11 16 1016.8 1015.9 0.0
15/12:30am 24.3 19.3 3.6 26 10.2 E 19 24 10 13 1016.9 1016.0 0.0
15/12:00am 25.3 19.7 3.3 24 10.8 ENE 22 30 12 16 1016.9 1016.0 0.0
 
Date/Time
CST
Temp
°C
App
Temp
°C
Dew
Point
°C
Rel
Hum
%
Delta-T
°C
Wind Press
QNH
hPa
Press
MSL
hPa
Rain since
9am
mm
Dir  Spd
km/h
Gust
km/h
Spd
kts
Gust
kts
14/11:30pm 25.7 19.7 3.6 24 11.0 E 24 33 13 18 1016.9 1016.0 0.0
14/11:00pm 26.4 20.8 3.6 23 11.4 ENE 22 30 12 16 1016.6 1015.7 0.0
14/10:30pm 26.7 21.6 3.9 23 11.5 ENE 20 28 11 15 1016.6 1015.7 0.0
14/10:00pm 26.7 22.3 4.5 24 11.3 E 17 20 9 11 1016.4 1015.5 0.0
14/09:30pm 27.4 22.4 4.5 23 11.7 ENE 20 26 11 14 1016.1 1015.2 0.0
14/09:00pm 27.9 22.8 4.2 22 12.1 E 20 28 11 15 1016.0 1015.1 0.0
14/08:30pm 28.3 23.4 3.9 21 12.4 E 19 24 10 13 1015.8 1014.9 0.0
14/08:00pm 28.9 23.9 3.7 20 12.8 E 19 30 10 16 1015.3 1014.5 0.0
14/07:30pm 28.4 24.1 3.3 20 12.6 E 15 28 8 15 1014.9 1014.1 0.0
14/07:00pm 29.2 25.3 3.2 19 13.1 E 13 19 7 10 1014.4 1013.6 0.0
14/06:30pm 30.2 26.1 2.5 17 13.9 E 13 17 7 9 1014.1 1013.3 0.0
14/06:00pm 32.1 26.7 2.2 15 15.1 E 20 30 11 16 1013.8 1013.0 0.0
14/05:30pm 32.7 26.4 1.7 14 15.6 ESE 24 37 13 20 1013.6 1012.8 0.0
14/05:00pm 33.0 27.5 2.0 14 15.7 SE 20 30 11 16 1013.4 1012.6 0.0
14/04:30pm 33.6 28.2 1.4 13 16.2 E 19 32 10 17 1013.4 1012.6 0.0
14/04:00pm 33.1 26.9 2.1 14 15.7 E 24 35 13 19 1013.5 1012.7 0.0
14/03:30pm 33.2 27.7 2.1 14 15.8 ESE 20 35 11 19 1013.6 1012.8 0.0
14/03:00pm 34.3 28.6 3.0 14 16.2 E 22 41 12 22 1013.7 1012.9 0.0
14/02:30pm 33.7 27.9 4.4 16 15.5 ESE 24 35 13 19 1014.2 1013.4 0.0
14/02:00pm 32.2 25.6 4.1 17 14.7 E 28 39 15 21 1014.8 1014.0 0.0
14/01:42pm 32.6 26.4 4.4 17 14.8 ESE 26 48 14 26 1014.9 1014.1 0.0
14/01:30pm 32.9 26.2 3.8 16 15.2 ESE 28 37 15 20 1015.3 1014.5 0.0
14/01:02pm 32.4 25.8 4.2 17 14.8 ESE 28 46 15 25 1016.0 1015.1 0.0
14/01:00pm 32.2 26.0 4.1 17 14.7 ESE 26 41 14 22 1016.1 1015.2 0.0
14/12:38pm 32.3 25.3 4.2 17 14.7 ESE 30 48 16 26 1016.7 1015.8 0.0
14/12:30pm 31.2 23.7 3.3 17 14.3 ESE 32 48 17 26 1016.8 1015.9 0.0
14/12:00pm 31.7 24.6 3.7 17 14.5 ESE 30 41 16 22 1017.4 1016.5 0.0
14/11:30am 31.0 23.7 4.7 19 13.7 E 32 44 17 24 1018.0 1017.1 0.0
14/11:26am 30.8 23.3 4.5 19 13.7 E 33 52 18 28 1018.0 1017.1 0.0
14/11:00am 30.1 21.1 2.4 17 13.9 E 39 54 21 29 1018.3 1017.5 0.0
14/10:30am 29.5 22.1 4.2 20 13.0 ESE 32 50 17 27 1019.0 1018.2 0.0
14/10:25am 30.1 24.1 5.4 21 13.0 ESE 26 46 14 25 1018.9 1018.1 0.0
14/10:00am 29.2 22.6 6.0 23 12.3 E 30 44 16 24 1019.4 1018.6 0.0
14/09:30am 27.8 23.7 8.6 30 10.5 ESE 20 35 11 19 1019.7 1018.9 0.0
14/09:00am 26.3 23.9 10.0 36 9.1 E 13 19 7 10 1019.9 1019.1 0.0
14/08:30am 22.9 21.8 11.9 50 6.2 ESE 9 11 5 6 1019.9 1019.1 0.0
14/08:00am 20.4 19.1 9.9 51 5.7 SE 7 9 4 5 1019.8 1019.0 0.0
14/07:30am 18.3 16.6 7.7 50 5.4 SE 6 9 3 5 1019.4 1018.6 0.0
14/07:00am 16.4 14.2 6.0 50 5.1 SE 7 9 4 5 1019.0 1018.2 0.0
14/06:30am 15.6 12.9 5.8 52 4.7 SE 9 9 5 5 1018.5 1017.7 0.0
14/06:00am 16.0 12.9 5.6 50 5.0 SSE 11 13 6 7 1018.3 1017.5 0.0
14/05:30am 16.1 11.9 5.7 50 5.0 SSE 17 19 9 10 1018.2 1017.4 0.0
14/05:00am 16.4 13.4 6.0 50 5.1 SE 11 15 6 8 1017.6 1016.7 0.0
14/04:30am 20.1 17.1 7.5 44 6.5 E 13 15 7 8 1017.3 1016.4 0.0
14/04:00am 19.8 17.1 5.8 40 7.0 E 9 15 5 8 1017.2 1016.3 0.0
14/03:30am 20.1 17.5 4.2 35 7.7 E 7 13 4 7 1017.1 1016.2 0.0
14/03:00am 21.4 17.6 4.0 32 8.4 E 13 17 7 9 1017.1 1016.2 0.0
14/02:30am 21.8 18.0 3.9 31 8.7 E 13 17 7 9 1017.0 1016.1 0.0
14/02:00am 22.8 18.2 3.9 29 9.3 E 17 20 9 11 1017.1 1016.2 0.0
14/01:30am 23.2 18.7 4.2 29 9.4 E 17 24 9 13 1017.4 1016.5 0.0
14/01:00am 23.0 18.8 4.0 29 9.3 E 15 24 8 13 1017.6 1016.7 0.0
14/12:30am 23.2 19.0 3.7 28 9.5 E 15 19 8 10 1017.6 1016.7 0.0
14/12:00am 23.0 19.0 3.0 27 9.6 E 13 17 7 9 1017.6 1016.7 0.0
 
Date/Time
CST
Temp
°C
App
Temp
°C
Dew
Point
°C
Rel
Hum
%
Delta-T
°C
Wind Press
QNH
hPa
Press
MSL
hPa
Rain since
9am
mm
Dir  Spd
km/h
Gust
km/h
Spd
kts
Gust
kts
13/11:30pm 23.4 19.4 2.8 26 9.9 E 13 15 7 8 1017.4 1016.5 0.0
13/11:00pm 24.2 19.7 2.4 24 10.5 E 15 19 8 10 1017.3 1016.4 0.0
13/10:30pm 23.2 19.0 1.5 24 10.2 E 13 17 7 9 1017.2 1016.3 0.0
13/10:00pm 22.9 18.7 1.9 25 9.9 ESE 13 15 7 8 1016.9 1016.0 0.0
13/09:30pm 20.3 16.5 1.7 29 8.6 SE 11 13 6 7 1016.6 1015.7 0.0
13/09:00pm 20.8 17.8 2.1 29 8.7 ESE 7 11 4 6 1016.5 1015.6 0.0
13/08:30pm 22.7 19.7 1.7 25 9.9 ESE 7 9 4 5 1016.3 1015.4 0.0
13/08:00pm 23.9 20.7 0.9 22 10.7 SE 7 9 4 5 1016.1 1015.2 0.0
13/07:30pm 27.0 23.3 -0.1 17 12.7 SE 9 9 5 5 1015.8 1014.9 0.0
13/07:00pm 27.9 23.8 -0.2 16 13.2 SE 11 13 6 7 1015.3 1014.5 0.0
13/06:30pm 28.9 23.9 -1.2 14 14.0 SE 15 19 8 10 1014.8 1014.0 0.0
13/06:00pm 31.6 25.6 -1.2 12 15.6 SE 20 30 11 16 1014.6 1013.8 0.0
13/05:30pm 32.4 26.7 -0.6 12 15.9 SE 19 26 10 14 1014.3 1013.5 0.0
13/05:00pm 32.8 27.0 -0.3 12 16.1 ESE 20 32 11 17 1014.4 1013.6 0.0
13/04:30pm 33.0 27.4 0.9 13 16.0 ESE 20 37 11 20 1014.4 1013.6 0.0
13/04:00pm 32.7 26.6 0.7 13 15.8 ESE 22 41 12 22 1014.5 1013.7 0.0
13/03:30pm 32.8 26.6 -0.3 12 16.1 ESE 22 37 12 20 1014.7 1013.9 0.0
13/03:00pm 33.7 27.4 -0.8 11 16.8 ESE 22 41 12 22 1014.9 1014.1 0.0
13/02:30pm 33.1 27.1 1.0 13 16.0 ESE 22 41 12 22 1015.4 1014.6 0.0
13/02:00pm 32.9 25.9 1.9 14 15.7 E 28 44 15 24 1016.0 1015.1 0.0
13/01:30pm 32.7 25.5 0.7 13 15.8 E 28 41 15 22 1016.6 1015.7 0.0
13/01:00pm 32.0 26.0 1.2 14 15.3 SE 22 41 12 22 1017.1 1016.2 0.0
13/12:32pm 31.4 25.1 1.7 15 14.8 E 24 48 13 26 1017.7 1016.8 0.0
13/12:30pm 30.9 25.5 2.2 16 14.4 E 20 35 11 19 1017.9 1017.0 0.0
13/12:00pm 31.6 24.6 1.8 15 14.9 ESE 28 46 15 25 1018.3 1017.5 0.0
13/11:34am 31.2 23.2 1.5 15 14.8 E 33 52 18 28 1018.9 1018.1 0.0
13/11:30am 30.7 22.4 2.0 16 14.3 E 35 48 19 26 1018.9 1018.1 0.0
13/11:00am 30.1 20.4 0.6 15 14.3 E 41 65 22 35 1019.3 1018.5 0.0
13/10:52am 29.4 20.9 1.0 16 13.8 E 35 65 19 35 1019.2 1018.4 0.0
13/10:30am 29.3 21.4 2.5 18 13.3 E 33 48 18 26 1019.8 1019.0 0.0
13/10:07am 28.8 22.2 4.3 21 12.6 E 28 46 15 25 1020.0 1019.2 0.0

Other formats

Comma delimited format used in spreadsheet applications
http://www.bom.gov.au/fwo/IDD60801/IDD60801.94131.axf

JavaScript Object Notation format (JSON) in row-major order
http://www.bom.gov.au/fwo/IDD60801/IDD60801.94131.json

Data quality

Most of these data are generated automatically and are frequently updated. Quality checks on data are not normally performed. It is possible for incorrect values to appear. Refer to information at About Latest Weather Observations and please check the disclaimer before using these data.